createdAt,value
2023-02-19T00:00:46.048Z,97186.03
2023-02-19T00:03:14.508Z,97185.66
2023-02-19T00:05:42.956Z,97185.59
2023-02-19T00:08:12.704Z,97191.72
2023-02-19T00:10:39.839Z,97184.53
2023-02-19T00:13:09.583Z,97184.41
2023-02-19T00:15:38.401Z,97180.25
2023-02-19T00:18:08.700Z,97188.19
2023-02-19T00:20:36.465Z,97186.78
2023-02-19T00:23:03.008Z,97181.84
2023-02-19T00:25:31.456Z,97183.06
2023-02-19T00:27:58.706Z,97176.00
2023-02-19T00:30:26.124Z,97181.41
2023-02-19T00:32:54.046Z,97176.38
2023-02-19T00:35:21.421Z,97178.22
2023-02-19T00:37:48.510Z,97183.91
2023-02-19T00:40:15.122Z,97185.88
2023-02-19T00:42:42.444Z,97175.78
2023-02-19T00:45:10.008Z,97173.75
2023-02-19T00:47:36.902Z,97174.47
2023-02-19T00:50:03.690Z,97179.28
2023-02-19T00:52:30.789Z,97180.56
2023-02-19T00:54:57.443Z,97180.69
2023-02-19T00:57:24.334Z,97190.19
2023-02-19T00:59:50.926Z,97184.31
2023-02-19T01:02:17.915Z,97184.53
2023-02-19T01:04:46.770Z,97186.66
2023-02-19T01:07:14.009Z,97186.78
2023-02-19T01:09:41.478Z,97178.03
2023-02-19T01:12:08.784Z,97172.56
2023-02-19T01:14:35.392Z,97171.03
2023-02-19T01:17:01.966Z,97179.13
2023-02-19T01:19:28.484Z,97173.09
2023-02-19T01:21:55.266Z,97171.38
2023-02-19T01:24:22.408Z,97172.56
2023-02-19T01:26:48.916Z,97179.38
2023-02-19T01:29:15.904Z,97183.13
2023-02-19T01:31:42.584Z,97177.84
2023-02-19T01:34:09.884Z,97175.00
2023-02-19T01:36:36.486Z,97180.47
2023-02-19T01:39:03.388Z,97168.41
2023-02-19T01:41:30.093Z,97169.97
2023-02-19T01:43:57.056Z,97173.16
2023-02-19T01:46:24.484Z,97156.94
2023-02-19T01:48:52.406Z,97156.56
2023-02-19T01:51:19.046Z,97165.16
2023-02-19T01:53:45.924Z,97151.81
2023-02-19T01:56:12.881Z,97155.94
2023-02-19T01:58:39.588Z,97157.31
2023-02-19T02:01:09.853Z,97149.69
2023-02-19T02:03:37.032Z,97147.41
2023-02-19T02:06:03.920Z,97147.88
2023-02-19T02:08:30.869Z,97136.94
2023-02-19T02:10:58.501Z,97135.09
2023-02-19T02:13:25.060Z,97136.84
2023-02-19T02:15:52.460Z,97126.75
2023-02-19T02:18:19.839Z,97131.34
2023-02-19T02:20:47.676Z,97130.09
2023-02-19T02:23:14.644Z,97135.69
2023-02-19T02:25:43.844Z,97134.81
2023-02-19T02:28:11.018Z,97132.63
2023-02-19T02:30:37.972Z,97126.25
2023-02-19T02:33:08.293Z,97124.56
2023-02-19T02:35:37.438Z,97121.47
2023-02-19T02:38:04.134Z,97127.88
2023-02-19T02:40:33.722Z,97117.06
2023-02-19T02:43:01.355Z,97108.69
2023-02-19T02:45:30.475Z,97109.44
2023-02-19T02:47:58.096Z,97115.59
2023-02-19T02:50:25.047Z,97125.84
2023-02-19T02:52:54.609Z,97121.00
2023-02-19T02:55:21.885Z,97110.94
2023-02-19T02:57:48.790Z,97110.28
2023-02-19T03:00:16.453Z,97112.31
2023-02-19T03:02:44.087Z,97119.78
2023-02-19T03:05:11.685Z,97113.53
2023-02-19T03:07:38.293Z,97111.25
2023-02-19T03:10:05.249Z,97108.78
2023-02-19T03:12:32.019Z,97106.22
2023-02-19T03:14:58.830Z,97107.09
2023-02-19T03:17:25.846Z,97099.63
2023-02-19T03:19:52.529Z,97101.94
2023-02-19T03:22:19.438Z,97102.56
2023-02-19T03:24:46.182Z,97111.13
2023-02-19T03:27:12.790Z,97112.09
2023-02-19T03:29:39.542Z,97107.28
2023-02-19T03:32:07.204Z,97099.91
2023-02-19T03:34:33.915Z,97093.13
2023-02-19T03:37:01.450Z,97078.31
2023-02-19T03:39:28.830Z,97084.91
2023-02-19T03:41:55.472Z,97090.50
2023-02-19T03:44:22.076Z,97086.34
2023-02-19T03:46:50.887Z,97089.16
2023-02-19T03:49:18.520Z,97093.38
2023-02-19T03:51:46.072Z,97088.97
2023-02-19T03:54:14.847Z,97093.16
2023-02-19T03:56:41.334Z,97085.13
2023-02-19T03:59:07.844Z,97087.22
2023-02-19T04:01:36.345Z,97088.97
2023-02-19T04:04:05.333Z,97098.44
2023-02-19T04:06:32.022Z,97099.91
2023-02-19T04:08:58.822Z,97106.50
2023-02-19T04:11:25.660Z,97109.38
2023-02-19T04:14:12.577Z,97115.03
2023-02-19T04:16:40.080Z,97104.06
2023-02-19T04:19:08.500Z,97111.22
2023-02-19T04:21:35.148Z,97121.50
2023-02-19T04:24:02.030Z,97123.50
2023-02-19T04:26:28.842Z,97121.28
2023-02-19T04:28:55.680Z,97127.69
2023-02-19T04:31:23.009Z,97129.69
2023-02-19T04:33:51.691Z,97129.69
2023-02-19T04:36:23.239Z,97146.56
2023-02-19T04:38:51.846Z,97144.66
2023-02-19T04:41:21.395Z,97156.34
2023-02-19T04:43:48.279Z,97163.06
2023-02-19T04:46:15.310Z,97156.72
2023-02-19T04:48:42.145Z,97157.41
2023-02-19T04:51:09.513Z,97156.69
2023-02-19T04:53:39.083Z,97156.69
2023-02-19T04:56:09.752Z,97153.28
2023-02-19T04:58:38.104Z,97157.22
2023-02-19T05:01:04.763Z,97159.09
2023-02-19T05:03:31.670Z,97177.56
2023-02-19T05:05:58.987Z,97167.06
2023-02-19T05:08:26.033Z,97160.03
2023-02-19T05:10:52.688Z,97144.84
2023-02-19T05:13:21.061Z,97133.72
2023-02-19T05:15:47.735Z,97142.47
2023-02-19T05:18:14.772Z,97146.94
2023-02-19T05:20:42.430Z,97137.03
2023-02-19T05:23:08.916Z,97137.94
2023-02-19T05:25:36.960Z,97141.13
2023-02-19T05:28:03.660Z,97125.72
2023-02-19T05:30:56.230Z,97118.53
2023-02-19T05:33:23.889Z,97113.56
2023-02-19T05:35:54.198Z,97107.19
2023-02-19T05:38:22.614Z,97103.69
2023-02-19T05:40:49.400Z,97101.88
2023-02-19T05:43:16.449Z,97090.53
2023-02-19T05:45:43.043Z,97095.81
2023-02-19T05:48:11.728Z,97085.56
2023-02-19T05:50:39.958Z,97077.03
2023-02-19T05:53:06.911Z,97094.25
2023-02-19T05:55:33.698Z,97112.34
2023-02-19T05:58:00.359Z,97112.69
2023-02-19T06:00:27.221Z,97092.50
2023-02-19T06:02:54.965Z,97098.03
2023-02-19T06:05:21.961Z,97095.13
2023-02-19T06:07:55.960Z,97101.03
2023-02-19T06:10:28.384Z,97093.91
2023-02-19T06:12:56.021Z,97095.81
2023-02-19T06:15:22.936Z,97103.78
2023-02-19T06:20:43.973Z,97133.81
2023-02-19T06:23:12.745Z,97132.41
2023-02-19T06:25:39.616Z,97136.94
2023-02-19T06:28:07.081Z,97136.59
2023-02-19T06:30:36.095Z,97137.28
2023-02-19T06:33:03.416Z,97147.66
2023-02-19T06:35:30.313Z,97153.97
2023-02-19T06:38:06.788Z,97161.66
2023-02-19T06:40:34.184Z,97171.66
2023-02-19T06:43:01.618Z,97178.66
2023-02-19T06:45:28.096Z,97181.13
2023-02-19T06:47:59.290Z,97177.63
2023-02-19T06:50:26.925Z,97177.06
2023-02-19T06:55:44.911Z,97176.53
2023-02-19T06:58:11.633Z,97176.88
2023-02-19T07:00:38.257Z,97181.31
2023-02-19T07:03:05.661Z,97182.38
2023-02-19T07:05:32.831Z,97176.31
2023-02-19T07:07:59.686Z,97181.69
2023-02-19T07:10:30.762Z,97182.91
2023-02-19T07:12:58.193Z,97196.78
2023-02-19T07:15:25.032Z,97204.25
2023-02-19T07:17:55.081Z,97202.44
2023-02-19T07:20:23.978Z,97215.50
2023-02-19T07:22:53.160Z,97215.06
2023-02-19T07:25:28.416Z,97209.28
2023-02-19T07:27:55.344Z,97205.38
2023-02-19T07:30:22.332Z,97207.81
2023-02-19T07:32:53.482Z,97206.28
2023-02-19T07:35:20.419Z,97215.22
2023-02-19T07:37:47.397Z,97213.66
2023-02-19T07:40:14.264Z,97227.13
2023-02-19T07:42:41.150Z,97238.56
2023-02-19T07:45:11.719Z,97230.06
2023-02-19T07:47:40.898Z,97248.72
2023-02-19T07:50:08.364Z,97242.09
2023-02-19T07:52:36.735Z,97245.94
2023-02-19T07:55:04.153Z,97255.19
2023-02-19T07:57:31.431Z,97252.53
2023-02-19T07:59:58.408Z,97241.66
2023-02-19T08:02:26.085Z,97252.75
2023-02-19T08:04:53.062Z,97256.91
2023-02-19T08:07:20.432Z,97259.78
2023-02-19T08:09:51.476Z,97256.47
2023-02-19T08:12:18.518Z,97254.97
2023-02-19T08:14:46.947Z,97265.09
2023-02-19T08:17:13.911Z,97267.34
2023-02-19T08:19:41.028Z,97265.38
2023-02-19T08:22:07.732Z,97268.78
2023-02-19T08:24:36.871Z,97268.34
2023-02-19T08:27:04.347Z,97274.19
2023-02-19T08:29:31.501Z,97273.16
2023-02-19T08:31:58.785Z,97264.09
2023-02-19T08:34:25.482Z,97272.03
2023-02-19T08:39:51.093Z,97263.34
2023-02-19T08:48:00.759Z,97277.97
2023-02-19T09:05:13.091Z,97276.44
2023-02-19T09:27:11.020Z,97283.31
2023-02-19T09:29:40.012Z,97278.59
2023-02-19T09:32:06.946Z,97279.47
2023-02-19T09:34:33.485Z,97274.78
2023-02-19T09:37:00.282Z,97274.75
2023-02-19T09:39:27.332Z,97283.22
2023-02-19T09:41:54.815Z,97279.78
2023-02-19T09:44:21.431Z,97281.53
2023-02-19T09:46:48.234Z,97287.66
2023-02-19T09:49:15.599Z,97275.91
2023-02-19T09:51:42.448Z,97276.06
2023-02-19T09:54:12.855Z,97274.38
2023-02-19T09:56:42.837Z,97270.69
2023-02-19T09:59:09.492Z,97279.50
2023-02-19T10:01:37.706Z,97283.13
2023-02-19T10:04:11.666Z,97272.34
2023-02-19T10:06:38.170Z,97279.13
2023-02-19T10:09:05.545Z,97282.38
2023-02-19T10:11:39.641Z,97278.31
2023-02-19T10:14:07.207Z,97281.63
2023-02-19T10:16:36.071Z,97285.41
2023-02-19T10:19:02.940Z,97277.66
2023-02-19T10:24:38.581Z,97286.47
2023-02-19T10:27:09.784Z,97284.84
2023-02-19T10:29:38.185Z,97284.56
2023-02-19T10:32:06.045Z,97284.53
2023-02-19T10:34:35.892Z,97285.50
2023-02-19T10:37:02.913Z,97278.75
2023-02-19T10:39:31.788Z,97292.50
2023-02-19T10:41:58.987Z,97290.94
2023-02-19T10:44:25.709Z,97292.53
2023-02-19T10:50:08.363Z,97280.81
2023-02-19T10:52:41.029Z,97274.50
2023-02-19T10:55:23.249Z,97280.47
2023-02-19T10:57:55.066Z,97280.28
2023-02-19T11:00:32.075Z,97272.94
2023-02-19T11:03:12.916Z,97273.19
2023-02-19T11:05:49.254Z,97268.06
2023-02-19T11:08:16.875Z,97271.13
2023-02-19T11:10:45.825Z,97278.31
2023-02-19T11:13:38.058Z,97272.78
2023-02-19T11:16:22.367Z,97269.94
2023-02-19T11:18:51.318Z,97266.66
2023-02-19T11:24:24.162Z,97256.75
2023-02-19T11:27:00.221Z,97248.16
2023-02-19T11:29:43.489Z,97247.63
2023-02-19T11:35:29.050Z,97240.91
2023-02-19T11:37:59.844Z,97235.19
2023-02-19T11:40:33.734Z,97236.69
2023-02-19T11:43:03.075Z,97235.03
2023-02-19T11:51:37.046Z,97223.84
2023-02-19T11:54:14.652Z,97214.09
2023-02-19T12:11:48.468Z,97197.31
2023-02-19T12:14:15.346Z,97193.16
2023-02-19T12:16:41.898Z,97183.88
2023-02-19T12:19:10.953Z,97178.28
2023-02-19T12:21:37.479Z,97168.75
2023-02-19T12:24:04.242Z,97170.09
2023-02-19T12:29:25.334Z,97165.38
2023-02-19T12:31:52.423Z,97169.06
2023-02-19T12:34:19.991Z,97176.66
2023-02-19T12:39:31.678Z,97173.06
2023-02-19T12:41:59.716Z,97168.66
2023-02-19T12:54:15.789Z,97153.19
2023-02-19T12:56:42.414Z,97158.50
2023-02-19T12:59:10.215Z,97160.91
2023-02-19T13:01:37.004Z,97157.53
2023-02-19T13:04:03.565Z,97158.56
2023-02-19T13:06:30.516Z,97151.75
2023-02-19T13:09:06.474Z,97142.09
2023-02-19T13:11:38.522Z,97145.72
2023-02-19T13:14:05.428Z,97144.03
2023-02-19T13:19:25.872Z,97144.19
2023-02-19T13:21:53.271Z,97138.25
2023-02-19T13:24:20.585Z,97129.81
2023-02-19T13:26:49.460Z,97131.78
2023-02-19T13:29:16.076Z,97135.75
2023-02-19T13:31:46.441Z,97147.69
2023-02-19T13:34:13.256Z,97136.34
2023-02-19T13:36:40.388Z,97128.00
2023-02-19T13:39:07.712Z,97123.25
2023-02-19T13:41:36.488Z,97130.94
2023-02-19T13:44:05.353Z,97126.31
2023-02-19T13:46:32.379Z,97136.94
2023-02-19T13:48:59.186Z,97129.91
2023-02-19T13:51:26.385Z,97129.63
2023-02-19T13:53:55.801Z,97127.69
2023-02-19T13:56:23.216Z,97120.38
2023-02-19T13:58:53.451Z,97118.81
2023-02-19T14:01:22.953Z,97119.66
2023-02-19T14:03:50.702Z,97118.41
2023-02-19T14:06:17.467Z,97119.22
2023-02-19T14:08:46.267Z,97122.44
2023-02-19T14:11:15.915Z,97123.41
2023-02-19T14:13:45.496Z,97132.94
2023-02-19T14:16:14.192Z,97121.28
2023-02-19T14:18:43.371Z,97115.50
2023-02-19T14:21:10.039Z,97109.09
2023-02-19T14:23:37.456Z,97111.09
2023-02-19T14:26:05.071Z,97098.00
2023-02-19T14:28:33.366Z,97089.19
2023-02-19T14:31:00.859Z,97088.78
2023-02-19T14:33:27.778Z,97078.31
2023-02-19T14:35:54.588Z,97069.00
2023-02-19T14:38:24.292Z,97074.81
2023-02-19T14:40:52.715Z,97087.59
2023-02-19T14:43:23.132Z,97077.50
2023-02-19T14:45:49.968Z,97082.06
2023-02-19T14:48:21.309Z,97077.38
2023-02-19T14:50:48.214Z,97074.09
2023-02-19T14:53:14.991Z,97076.84
2023-02-19T14:55:41.844Z,97082.94
2023-02-19T14:58:08.338Z,97086.09
2023-02-19T15:00:35.148Z,97092.59
2023-02-19T15:03:02.616Z,97103.94
2023-02-19T15:05:30.916Z,97105.31
2023-02-19T15:07:57.933Z,97095.84
2023-02-19T15:10:28.265Z,97110.56
2023-02-19T15:12:54.857Z,97107.88
2023-02-19T15:15:24.002Z,97105.50
2023-02-19T15:17:50.582Z,97104.13
2023-02-19T15:20:19.391Z,97101.72
2023-02-19T15:22:46.609Z,97093.16
2023-02-19T15:25:13.443Z,97098.94
2023-02-19T16:32:32.557Z,97131.91
2023-02-19T16:35:00.119Z,97141.06
2023-02-19T16:37:28.659Z,97144.88
2023-02-19T16:39:56.812Z,97150.19
2023-02-19T16:42:23.751Z,97150.59
2023-02-19T16:44:50.896Z,97141.63
2023-02-19T16:47:19.539Z,97146.00
2023-02-19T16:49:49.528Z,97142.25
2023-02-19T16:52:18.165Z,97158.78
2023-02-19T16:54:45.003Z,97170.97
2023-02-19T16:57:12.492Z,97174.56
2023-02-19T16:59:40.972Z,97175.53
2023-02-19T17:02:13.249Z,97174.00
2023-02-19T17:04:40.043Z,97182.72
2023-02-19T17:46:49.101Z,97223.47
2023-02-19T17:49:15.946Z,97226.09
2023-02-19T17:51:42.725Z,97233.56
2023-02-19T17:54:09.981Z,97235.44
2023-02-19T17:56:39.362Z,97236.19
2023-02-19T17:59:08.033Z,97231.66
2023-02-19T18:01:37.092Z,97245.56
2023-02-19T18:04:06.328Z,97242.19
2023-02-19T18:09:23.111Z,97249.03
2023-02-19T18:11:50.238Z,97260.38
2023-02-19T18:14:17.716Z,97255.13
2023-02-19T18:16:44.627Z,97263.38
2023-02-19T18:19:11.687Z,97264.88
2023-02-19T18:21:40.754Z,97262.25
2023-02-19T18:26:48.895Z,97266.38
2023-02-19T18:29:22.437Z,97266.75
2023-02-19T18:31:53.721Z,97273.88
2023-02-19T18:34:22.569Z,97271.22
2023-02-19T20:02:06.298Z,97278.00
2023-02-19T20:04:34.434Z,97274.28
2023-02-19T20:07:01.266Z,97262.78
2023-02-19T20:09:39.220Z,97264.66
2023-02-19T22:05:40.028Z,97350.31
2023-02-19T22:08:06.986Z,97356.38
2023-02-19T22:38:50.948Z,97358.56
2023-02-19T22:41:17.929Z,97371.19
2023-02-19T22:43:45.544Z,97359.28
2023-02-19T22:46:13.410Z,97365.09
2023-02-19T22:48:40.576Z,97363.06
2023-02-19T22:51:07.724Z,97358.19
2023-02-19T22:53:34.868Z,97361.31
2023-02-19T22:56:03.342Z,97359.13
2023-02-19T22:58:30.375Z,97356.22
2023-02-19T23:00:57.424Z,97362.38
2023-02-19T23:03:24.496Z,97367.88
2023-02-19T23:05:51.553Z,97362.22
2023-02-19T23:08:18.713Z,97366.66
2023-02-19T23:10:47.597Z,97367.91
2023-02-19T23:13:17.349Z,97357.97
2023-02-19T23:15:45.208Z,97356.25
2023-02-19T23:18:13.450Z,97362.50
2023-02-19T23:20:40.528Z,97356.38
2023-02-19T23:23:07.457Z,97360.69
2023-02-19T23:25:36.499Z,97367.06
2023-02-19T23:28:05.133Z,97357.91
2023-02-19T23:30:32.154Z,97361.66
2023-02-19T23:32:59.275Z,97368.56
2023-02-19T23:35:26.803Z,97366.28
2023-02-19T23:37:54.384Z,97382.63
2023-02-19T23:40:21.486Z,97376.44
2023-02-19T23:42:48.132Z,97370.56
2023-02-19T23:45:15.543Z,97373.06
2023-02-19T23:47:43.020Z,97382.59
2023-02-19T23:50:10.722Z,97369.81
2023-02-19T23:52:39.886Z,97373.00
2023-02-19T23:55:09.833Z,97380.38
2023-02-19T23:57:40.205Z,97378.63
